createdAt,value
2022-07-31T00:02:41.579Z,18.95
2022-07-31T00:07:59.763Z,18.75
2022-07-31T00:13:02.745Z,18.62
2022-07-31T00:18:05.387Z,18.51
2022-07-31T00:23:07.994Z,18.35
2022-07-31T00:28:11.039Z,18.38
2022-07-31T00:38:32.148Z,18.21
2022-07-31T00:43:19.386Z,18.2
2022-07-31T00:48:21.869Z,18.19
2022-07-31T00:53:24.468Z,18.12
2022-07-31T00:58:29.906Z,18.07
2022-07-31T01:03:32.485Z,18.2
2022-07-31T01:08:35.178Z,18.19
2022-07-31T01:13:37.991Z,18.17
2022-07-31T01:18:40.530Z,18.14
2022-07-31T01:23:44.737Z,18.14
2022-07-31T01:28:46.094Z,18.06
2022-07-31T01:33:48.510Z,17.93
2022-07-31T01:38:51.103Z,17.97
2022-07-31T01:43:56.407Z,17.93
2022-07-31T01:48:59.222Z,17.91
2022-07-31T01:54:01.773Z,17.84
2022-07-31T01:59:04.470Z,17.68
2022-07-31T02:04:07.666Z,17.76
2022-07-31T02:09:10.309Z,17.73
2022-07-31T02:14:13.281Z,17.66
2022-07-31T02:19:16.284Z,17.55
2022-07-31T02:24:18.919Z,17.61
2022-07-31T02:29:21.566Z,17.58
2022-07-31T02:34:29.241Z,17.55
2022-07-31T02:44:29.707Z,17.38
2022-07-31T02:49:32.315Z,17.26
2022-07-31T02:54:35.002Z,17.2
2022-07-31T02:59:37.920Z,17.11
2022-07-31T03:04:40.456Z,17.25
2022-07-31T03:09:43.197Z,17.25
2022-07-31T03:19:48.318Z,17.24
2022-07-31T03:24:51.073Z,17.12
2022-07-31T03:29:53.885Z,17.07
2022-07-31T03:39:58.977Z,17.02
2022-07-31T03:45:04.484Z,17.02
2022-07-31T03:55:09.865Z,17.44
2022-07-31T04:00:16.829Z,17.58
2022-07-31T04:05:18.232Z,17.75
2022-07-31T04:10:21.061Z,17.97
2022-07-31T04:20:29.721Z,18.51
2022-07-31T04:25:32.614Z,18.83
2022-07-31T04:30:35.245Z,19.29
2022-07-31T04:35:37.975Z,19.28
2022-07-31T04:40:40.578Z,19.58
2022-07-31T04:45:43.340Z,19.85
2022-07-31T04:50:46.158Z,20.42
2022-07-31T04:55:48.712Z,20.84
2022-07-31T05:00:51.590Z,20.97
2022-07-31T05:05:54.227Z,21.11
2022-07-31T05:10:57.062Z,21.62
2022-07-31T05:15:59.746Z,21.4
2022-07-31T05:21:02.361Z,21.88
2022-07-31T05:26:05.149Z,22.17
2022-07-31T05:31:08.155Z,22.62
2022-07-31T05:36:10.944Z,22.81
2022-07-31T05:41:14.226Z,23
2022-07-31T05:51:20.154Z,23.18
2022-07-31T05:56:22.601Z,23.45
2022-07-31T06:01:25.366Z,23.8
2022-07-31T06:11:30.656Z,23.47
2022-07-31T06:16:33.209Z,23.86
2022-07-31T06:21:35.899Z,23.81
2022-07-31T06:26:38.489Z,23.9
2022-07-31T06:31:41.160Z,23.12
2022-07-31T06:36:43.920Z,24.17
2022-07-31T06:41:46.660Z,23.98
2022-07-31T06:46:49.701Z,24.16
2022-07-31T06:56:55.179Z,26.06
2022-07-31T07:07:00.692Z,26.69
2022-07-31T07:12:03.497Z,27.53
2022-07-31T07:17:06.015Z,27.25
2022-07-31T07:27:11.121Z,26.85
2022-07-31T07:32:13.752Z,26.36
2022-07-31T07:37:16.524Z,26.68
2022-07-31T07:47:22.052Z,27.69
2022-07-31T07:57:27.551Z,26.31
2022-07-31T08:02:29.888Z,25.98
2022-07-31T08:12:35.124Z,25.82
2022-07-31T08:17:38.109Z,27.27
2022-07-31T08:22:41.208Z,27.72
2022-07-31T08:27:43.926Z,27.01
2022-07-31T08:32:46.596Z,28.45
2022-07-31T08:37:50.501Z,27.42
2022-07-31T08:47:54.430Z,28.27
2022-07-31T08:52:57.050Z,27.96
2022-07-31T08:57:59.506Z,28.09
2022-07-31T09:03:02.225Z,28.63
2022-07-31T09:13:07.439Z,27.77
2022-07-31T09:18:10.050Z,27.46
2022-07-31T09:23:12.790Z,28.33
2022-07-31T09:28:20.972Z,28.18
2022-07-31T09:33:21.017Z,27.75
2022-07-31T09:38:23.440Z,28
2022-07-31T09:43:26.286Z,28.57
2022-07-31T09:48:29.070Z,28.64
2022-07-31T09:53:31.750Z,28.89
2022-07-31T09:58:34.520Z,29.78
2022-07-31T10:03:37.018Z,28.36
2022-07-31T10:08:42.126Z,28.52
2022-07-31T10:13:44.796Z,27.95
2022-07-31T10:19:05.357Z,28.02
2022-07-31T10:24:08.743Z,28.86
2022-07-31T10:29:11.706Z,30.42
2022-07-31T10:34:14.150Z,30.41
2022-07-31T10:39:16.676Z,29.3
2022-07-31T10:49:22.689Z,30.69
2022-07-31T10:54:25.171Z,29.14
2022-07-31T10:59:27.762Z,28.85
2022-07-31T11:04:33.017Z,29.47
2022-07-31T11:09:50.286Z,30.31
2022-07-31T11:14:39.594Z,30.79
2022-07-31T11:19:42.350Z,31.13
2022-07-31T11:24:45.265Z,32.31
2022-07-31T11:30:05.752Z,31.18
2022-07-31T11:35:05.433Z,32.1
2022-07-31T11:40:07.953Z,30.92
2022-07-31T11:45:10.857Z,29.63
2022-07-31T11:50:13.161Z,30.58
2022-07-31T11:55:15.727Z,31.06
2022-07-31T12:00:23.225Z,30.02
2022-07-31T12:10:23.404Z,28.54
2022-07-31T12:15:26.019Z,28.88
2022-07-31T12:20:35.185Z,29.06
2022-07-31T12:25:31.560Z,29.55
2022-07-31T12:30:34.512Z,30.19
2022-07-31T12:35:38.452Z,30.15
2022-07-31T12:50:45.174Z,30.93
2022-07-31T12:55:48.096Z,30.46
2022-07-31T13:00:50.642Z,30.23
2022-07-31T13:05:53.200Z,30.03
2022-07-31T13:10:56.038Z,30.61
2022-07-31T13:15:58.976Z,30.53
2022-07-31T13:21:01.582Z,30.34
2022-07-31T13:26:04.006Z,30.21
2022-07-31T13:31:06.398Z,30.06
2022-07-31T13:41:11.769Z,29.85
2022-07-31T13:46:14.302Z,29.1
2022-07-31T13:51:16.912Z,29.22
2022-07-31T13:56:33.994Z,28.91
2022-07-31T14:01:22.077Z,29.06
2022-07-31T14:06:24.907Z,28.98
2022-07-31T14:11:27.487Z,29.2
2022-07-31T14:16:30.256Z,29.28
2022-07-31T14:26:36.110Z,29.93
2022-07-31T14:31:38.827Z,30.04
2022-07-31T14:36:41.743Z,29.81
2022-07-31T14:41:44.336Z,30.2
2022-07-31T14:46:46.941Z,29.77
2022-07-31T14:51:49.526Z,29.7
2022-07-31T14:57:02.173Z,29.85
2022-07-31T15:01:57.727Z,29.72
2022-07-31T15:07:18.920Z,30.01
2022-07-31T15:12:03.543Z,29.7
2022-07-31T15:17:06.177Z,29.14
2022-07-31T15:22:09.579Z,29.03
2022-07-31T15:27:11.348Z,28.78
2022-07-31T15:32:13.846Z,28.61
2022-07-31T15:37:19.822Z,28.61
2022-07-31T15:42:23.075Z,28.97
2022-07-31T15:52:25.109Z,29.24
2022-07-31T15:57:27.853Z,29.31
2022-07-31T16:02:30.616Z,29.28
2022-07-31T16:08:27.922Z,29.55
2022-07-31T16:12:36.156Z,30.02
2022-07-31T16:22:42.060Z,30.31
2022-07-31T16:27:44.540Z,29.96
2022-07-31T16:37:53.743Z,29.61
2022-07-31T16:47:58.015Z,29.46
2022-07-31T16:58:03.827Z,29.03
2022-07-31T17:03:31.202Z,29.07
2022-07-31T17:08:12.104Z,28.55
2022-07-31T17:13:14.636Z,28.31
2022-07-31T17:23:42.883Z,28.26
2022-07-31T17:28:22.958Z,28.22
2022-07-31T17:33:49.747Z,28.11
2022-07-31T17:38:28.054Z,27.9
2022-07-31T17:43:30.761Z,27.71
2022-07-31T17:53:54.918Z,27.64
2022-07-31T17:58:38.901Z,27.56
2022-07-31T18:03:44.466Z,27.45
2022-07-31T18:08:47.042Z,27.46
2022-07-31T18:13:51.813Z,27.3
2022-07-31T18:18:54.554Z,27.26
2022-07-31T18:23:55.503Z,27.15
2022-07-31T18:29:37.893Z,27.07
2022-07-31T18:34:40.911Z,27.06
2022-07-31T18:39:47.873Z,26.98
2022-07-31T18:44:46.208Z,26.87
2022-07-31T18:50:57.829Z,26.83
2022-07-31T18:54:54.454Z,26.78
2022-07-31T19:04:59.792Z,26.72
2022-07-31T19:10:02.468Z,26.65
2022-07-31T19:15:05.074Z,26.6
2022-07-31T19:25:10.159Z,26.5
2022-07-31T19:30:18.440Z,26.43
2022-07-31T19:35:21.625Z,26.35
2022-07-31T19:40:24.527Z,26.36
2022-07-31T19:45:26.917Z,26.36
2022-07-31T19:50:29.595Z,26.3
2022-07-31T19:55:36.151Z,26.19
2022-07-31T20:00:35.012Z,26.16
2022-07-31T20:05:37.685Z,26.14
2022-07-31T20:15:51.805Z,26.05
2022-07-31T20:20:46.217Z,26
2022-07-31T20:25:48.976Z,25.99
2022-07-31T20:30:51.799Z,25.82
2022-07-31T20:40:57.279Z,25.67
2022-07-31T20:46:00.197Z,25.5
2022-07-31T20:51:02.767Z,25.41
2022-07-31T20:56:05.306Z,25.31
2022-07-31T21:01:07.955Z,25.31
2022-07-31T21:11:13.147Z,25.23
2022-07-31T21:16:18.354Z,25.23
2022-07-31T21:21:21.103Z,25.1
2022-07-31T21:26:23.954Z,24.9
2022-07-31T21:31:26.481Z,24.77
2022-07-31T21:36:29.098Z,24.55
2022-07-31T21:41:31.694Z,24.17
2022-07-31T21:46:34.297Z,24.06
2022-07-31T21:51:37.340Z,23.94
2022-07-31T21:56:39.852Z,24.04
2022-07-31T22:07:12.552Z,24.35
2022-07-31T22:12:14.942Z,24.31
2022-07-31T22:17:17.518Z,24.19
2022-07-31T22:22:20.018Z,24.06
2022-07-31T22:27:22.710Z,23.96
2022-07-31T22:32:28.060Z,23.94
2022-07-31T22:42:33.786Z,23.81
2022-07-31T22:47:36.359Z,23.73
2022-07-31T22:52:39.099Z,23.53
2022-07-31T22:57:41.918Z,23.46
2022-07-31T23:02:44.556Z,23.38
2022-07-31T23:07:47.117Z,23.22
2022-07-31T23:17:52.361Z,23.05
2022-07-31T23:22:55.187Z,22.91
2022-07-31T23:27:57.677Z,22.81
2022-07-31T23:33:00.370Z,22.71
2022-07-31T23:38:02.916Z,22.66
2022-07-31T23:43:05.472Z,22.69
2022-07-31T23:58:13.632Z,22.51
